sensor_id;sensor_type;location;lat;lon;timestamp;P1;durP1;ratioP1;P2;durP2;ratioP2
15921;SDS011;8060;50.948;3.146;2024-01-10T00:01:18;11.87;;;6.27;;
15921;SDS011;8060;50.948;3.146;2024-01-10T00:03:47;14.33;;;6.67;;
15921;SDS011;8060;50.948;3.146;2024-01-10T00:06:15;12.37;;;6.40;;
15921;SDS011;8060;50.948;3.146;2024-01-10T00:08:45;11.00;;;6.63;;
15921;SDS011;8060;50.948;3.146;2024-01-10T00:11:13;12.17;;;6.40;;
15921;SDS011;8060;50.948;3.146;2024-01-10T00:13:41;14.30;;;6.63;;
15921;SDS011;8060;50.948;3.146;2024-01-10T00:16:11;16.63;;;7.07;;
15921;SDS011;8060;50.948;3.146;2024-01-10T00:18:39;12.93;;;6.47;;
15921;SDS011;8060;50.948;3.146;2024-01-10T00:21:08;11.23;;;6.77;;
15921;SDS011;8060;50.948;3.146;2024-01-10T00:23:37;13.17;;;6.93;;
15921;SDS011;8060;50.948;3.146;2024-01-10T00:26:06;11.10;;;6.40;;
15921;SDS011;8060;50.948;3.146;2024-01-10T00:28:34;11.57;;;6.47;;
15921;SDS011;8060;50.948;3.146;2024-01-10T00:31:03;13.60;;;6.97;;
15921;SDS011;8060;50.948;3.146;2024-01-10T00:33:31;15.83;;;7.23;;
15921;SDS011;8060;50.948;3.146;2024-01-10T00:36:00;13.03;;;6.13;;
15921;SDS011;8060;50.948;3.146;2024-01-10T00:38:28;13.80;;;7.63;;
15921;SDS011;8060;50.948;3.146;2024-01-10T00:40:56;13.83;;;6.63;;
15921;SDS011;8060;50.948;3.146;2024-01-10T00:43:26;14.10;;;7.13;;
15921;SDS011;8060;50.948;3.146;2024-01-10T00:45:54;15.53;;;7.50;;
15921;SDS011;8060;50.948;3.146;2024-01-10T00:48:22;16.00;;;7.40;;
15921;SDS011;8060;50.948;3.146;2024-01-10T00:50:50;15.37;;;6.90;;
15921;SDS011;8060;50.948;3.146;2024-01-10T00:53:18;13.47;;;7.07;;
15921;SDS011;8060;50.948;3.146;2024-01-10T00:55:46;12.87;;;6.87;;
15921;SDS011;8060;50.948;3.146;2024-01-10T00:58:15;12.80;;;7.40;;
15921;SDS011;8060;50.948;3.146;2024-01-10T01:00:44;17.33;;;7.57;;
15921;SDS011;8060;50.948;3.146;2024-01-10T01:03:12;14.80;;;8.13;;
15921;SDS011;8060;50.948;3.146;2024-01-10T01:05:41;15.60;;;7.30;;
15921;SDS011;8060;50.948;3.146;2024-01-10T01:08:09;16.33;;;8.33;;
15921;SDS011;8060;50.948;3.146;2024-01-10T01:10:37;20.10;;;7.87;;
15921;SDS011;8060;50.948;3.146;2024-01-10T01:13:05;16.57;;;8.13;;
15921;SDS011;8060;50.948;3.146;2024-01-10T01:15:33;18.60;;;8.80;;
15921;SDS011;8060;50.948;3.146;2024-01-10T01:18:03;20.13;;;8.10;;
15921;SDS011;8060;50.948;3.146;2024-01-10T01:20:32;18.33;;;8.23;;
15921;SDS011;8060;50.948;3.146;2024-01-10T01:23:01;19.87;;;9.03;;
15921;SDS011;8060;50.948;3.146;2024-01-10T01:25:29;21.60;;;9.90;;
15921;SDS011;8060;50.948;3.146;2024-01-10T01:27:58;19.40;;;9.07;;
15921;SDS011;8060;50.948;3.146;2024-01-10T01:30:26;18.53;;;9.93;;
15921;SDS011;8060;50.948;3.146;2024-01-10T01:32:54;23.77;;;10.50;;
15921;SDS011;8060;50.948;3.146;2024-01-10T01:35:24;18.30;;;9.07;;
15921;SDS011;8060;50.948;3.146;2024-01-10T01:37:52;20.50;;;9.57;;
15921;SDS011;8060;50.948;3.146;2024-01-10T01:40:20;17.07;;;8.83;;
15921;SDS011;8060;50.948;3.146;2024-01-10T01:42:48;20.47;;;9.50;;
15921;SDS011;8060;50.948;3.146;2024-01-10T01:45:16;19.50;;;9.70;;
15921;SDS011;8060;50.948;3.146;2024-01-10T01:47:44;22.53;;;9.93;;
15921;SDS011;8060;50.948;3.146;2024-01-10T01:50:12;20.73;;;9.87;;
15921;SDS011;8060;50.948;3.146;2024-01-10T01:52:42;16.93;;;9.43;;
15921;SDS011;8060;50.948;3.146;2024-01-10T01:55:11;21.20;;;9.67;;
15921;SDS011;8060;50.948;3.146;2024-01-10T01:57:39;21.50;;;9.70;;
15921;SDS011;8060;50.948;3.146;2024-01-10T02:00:07;20.70;;;9.17;;
15921;SDS011;8060;50.948;3.146;2024-01-10T02:02:36;18.30;;;8.43;;
15921;SDS011;8060;50.948;3.146;2024-01-10T02:05:05;20.83;;;9.30;;
15921;SDS011;8060;50.948;3.146;2024-01-10T02:07:34;20.10;;;9.50;;
15921;SDS011;8060;50.948;3.146;2024-01-10T02:10:04;16.37;;;8.83;;
15921;SDS011;8060;50.948;3.146;2024-01-10T02:12:33;17.33;;;8.33;;
15921;SDS011;8060;50.948;3.146;2024-01-10T02:15:01;17.40;;;8.90;;
15921;SDS011;8060;50.948;3.146;2024-01-10T02:17:31;20.33;;;8.80;;
15921;SDS011;8060;50.948;3.146;2024-01-10T02:20:07;17.93;;;8.80;;
15921;SDS011;8060;50.948;3.146;2024-01-10T02:22:36;19.23;;;8.37;;
15921;SDS011;8060;50.948;3.146;2024-01-10T02:25:06;18.13;;;8.73;;
15921;SDS011;8060;50.948;3.146;2024-01-10T02:27:35;17.27;;;8.57;;
15921;SDS011;8060;50.948;3.146;2024-01-10T02:30:04;20.87;;;8.53;;
15921;SDS011;8060;50.948;3.146;2024-01-10T02:32:34;18.47;;;8.63;;
15921;SDS011;8060;50.948;3.146;2024-01-10T02:35:03;18.27;;;8.93;;
15921;SDS011;8060;50.948;3.146;2024-01-10T02:37:31;16.40;;;8.60;;
15921;SDS011;8060;50.948;3.146;2024-01-10T02:40:00;17.13;;;8.87;;
15921;SDS011;8060;50.948;3.146;2024-01-10T02:42:30;15.73;;;8.53;;
15921;SDS011;8060;50.948;3.146;2024-01-10T02:44:59;16.40;;;8.47;;
15921;SDS011;8060;50.948;3.146;2024-01-10T02:47:27;18.63;;;8.57;;
15921;SDS011;8060;50.948;3.146;2024-01-10T02:49:55;19.77;;;8.77;;
15921;SDS011;8060;50.948;3.146;2024-01-10T02:52:23;17.23;;;8.47;;
15921;SDS011;8060;50.948;3.146;2024-01-10T02:54:51;16.90;;;8.47;;
15921;SDS011;8060;50.948;3.146;2024-01-10T02:57:20;17.67;;;8.37;;
15921;SDS011;8060;50.948;3.146;2024-01-10T02:59:49;15.33;;;8.30;;
15921;SDS011;8060;50.948;3.146;2024-01-10T03:02:17;16.40;;;8.30;;
15921;SDS011;8060;50.948;3.146;2024-01-10T03:04:45;15.63;;;7.73;;
15921;SDS011;8060;50.948;3.146;2024-01-10T03:07:13;15.90;;;8.10;;
15921;SDS011;8060;50.948;3.146;2024-01-10T03:09:41;14.67;;;8.07;;
15921;SDS011;8060;50.948;3.146;2024-01-10T03:12:10;18.30;;;8.20;;
15921;SDS011;8060;50.948;3.146;2024-01-10T03:14:39;18.50;;;8.37;;
15921;SDS011;8060;50.948;3.146;2024-01-10T03:17:08;17.70;;;8.80;;
15921;SDS011;8060;50.948;3.146;2024-01-10T03:19:37;16.07;;;8.27;;
15921;SDS011;8060;50.948;3.146;2024-01-10T03:22:08;17.00;;;8.63;;
15921;SDS011;8060;50.948;3.146;2024-01-10T03:24:37;16.83;;;8.37;;
15921;SDS011;8060;50.948;3.146;2024-01-10T03:27:05;15.43;;;8.30;;
15921;SDS011;8060;50.948;3.146;2024-01-10T03:29:33;14.57;;;7.53;;
15921;SDS011;8060;50.948;3.146;2024-01-10T03:32:02;17.87;;;8.17;;
15921;SDS011;8060;50.948;3.146;2024-01-10T03:34:31;15.47;;;7.97;;
15921;SDS011;8060;50.948;3.146;2024-01-10T03:36:59;15.43;;;8.33;;
15921;SDS011;8060;50.948;3.146;2024-01-10T03:39:27;19.33;;;8.63;;
15921;SDS011;8060;50.948;3.146;2024-01-10T03:41:56;16.47;;;7.87;;
15921;SDS011;8060;50.948;3.146;2024-01-10T03:44:26;18.27;;;7.77;;
15921;SDS011;8060;50.948;3.146;2024-01-10T03:46:54;18.07;;;8.30;;
15921;SDS011;8060;50.948;3.146;2024-01-10T03:49:22;16.97;;;7.73;;
15921;SDS011;8060;50.948;3.146;2024-01-10T03:51:52;17.53;;;8.37;;
15921;SDS011;8060;50.948;3.146;2024-01-10T03:54:20;19.87;;;8.37;;
15921;SDS011;8060;50.948;3.146;2024-01-10T03:56:48;16.17;;;7.90;;
15921;SDS011;8060;50.948;3.146;2024-01-10T03:59:16;15.77;;;7.30;;
15921;SDS011;8060;50.948;3.146;2024-01-10T04:01:44;14.53;;;7.57;;
15921;SDS011;8060;50.948;3.146;2024-01-10T04:04:12;13.87;;;7.23;;
15921;SDS011;8060;50.948;3.146;2024-01-10T04:06:40;18.07;;;8.17;;
15921;SDS011;8060;50.948;3.146;2024-01-10T04:09:10;14.50;;;7.77;;
15921;SDS011;8060;50.948;3.146;2024-01-10T04:11:39;15.63;;;7.53;;
15921;SDS011;8060;50.948;3.146;2024-01-10T04:14:07;14.77;;;7.77;;
15921;SDS011;8060;50.948;3.146;2024-01-10T04:16:35;16.27;;;7.50;;
15921;SDS011;8060;50.948;3.146;2024-01-10T04:19:03;18.10;;;7.77;;
15921;SDS011;8060;50.948;3.146;2024-01-10T04:21:32;13.23;;;7.23;;
15921;SDS011;8060;50.948;3.146;2024-01-10T04:24:01;20.07;;;7.67;;
15921;SDS011;8060;50.948;3.146;2024-01-10T04:26:30;14.73;;;8.07;;
15921;SDS011;8060;50.948;3.146;2024-01-10T04:28:59;13.80;;;7.40;;
15921;SDS011;8060;50.948;3.146;2024-01-10T04:31:27;16.27;;;7.77;;
15921;SDS011;8060;50.948;3.146;2024-01-10T04:33:55;16.87;;;7.60;;
15921;SDS011;8060;50.948;3.146;2024-01-10T04:36:23;14.90;;;7.10;;
15921;SDS011;8060;50.948;3.146;2024-01-10T04:38:51;14.67;;;7.63;;
15921;SDS011;8060;50.948;3.146;2024-01-10T04:41:19;14.27;;;7.90;;
15921;SDS011;8060;50.948;3.146;2024-01-10T04:43:49;13.93;;;7.23;;
15921;SDS011;8060;50.948;3.146;2024-01-10T04:46:18;16.27;;;7.43;;
15921;SDS011;8060;50.948;3.146;2024-01-10T04:48:46;17.70;;;7.30;;
15921;SDS011;8060;50.948;3.146;2024-01-10T04:51:14;18.30;;;8.30;;
15921;SDS011;8060;50.948;3.146;2024-01-10T04:53:42;16.20;;;7.03;;
15921;SDS011;8060;50.948;3.146;2024-01-10T04:56:10;15.07;;;7.20;;
15921;SDS011;8060;50.948;3.146;2024-01-10T04:58:38;18.80;;;9.10;;
15921;SDS011;8060;50.948;3.146;2024-01-10T05:01:08;16.30;;;8.53;;
15921;SDS011;8060;50.948;3.146;2024-01-10T05:03:36;16.57;;;8.50;;
15921;SDS011;8060;50.948;3.146;2024-01-10T05:06:04;20.60;;;9.73;;
15921;SDS011;8060;50.948;3.146;2024-01-10T05:08:33;15.90;;;7.93;;
15921;SDS011;8060;50.948;3.146;2024-01-10T05:11:01;18.83;;;8.43;;
15921;SDS011;8060;50.948;3.146;2024-01-10T05:13:30;17.00;;;8.33;;
15921;SDS011;8060;50.948;3.146;2024-01-10T05:15:58;15.93;;;7.23;;
15921;SDS011;8060;50.948;3.146;2024-01-10T05:18:27;14.33;;;7.90;;
15921;SDS011;8060;50.948;3.146;2024-01-10T05:20:55;14.87;;;7.63;;
15921;SDS011;8060;50.948;3.146;2024-01-10T05:23:24;18.83;;;7.93;;
15921;SDS011;8060;50.948;3.146;2024-01-10T05:25:53;15.03;;;7.17;;
15921;SDS011;8060;50.948;3.146;2024-01-10T05:28:21;14.90;;;6.83;;
15921;SDS011;8060;50.948;3.146;2024-01-10T05:30:49;12.70;;;7.20;;
15921;SDS011;8060;50.948;3.146;2024-01-10T05:33:18;16.67;;;6.77;;
15921;SDS011;8060;50.948;3.146;2024-01-10T05:35:47;16.70;;;7.23;;
15921;SDS011;8060;50.948;3.146;2024-01-10T05:38:15;18.53;;;7.33;;
15921;SDS011;8060;50.948;3.146;2024-01-10T05:40:44;15.23;;;7.50;;
15921;SDS011;8060;50.948;3.146;2024-01-10T05:43:12;15.77;;;8.00;;
15921;SDS011;8060;50.948;3.146;2024-01-10T05:45:41;17.00;;;7.67;;
15921;SDS011;8060;50.948;3.146;2024-01-10T05:48:09;18.83;;;7.80;;
15921;SDS011;8060;50.948;3.146;2024-01-10T05:50:38;15.53;;;7.50;;
15921;SDS011;8060;50.948;3.146;2024-01-10T05:53:08;18.67;;;7.80;;
15921;SDS011;8060;50.948;3.146;2024-01-10T05:55:36;21.97;;;7.87;;
15921;SDS011;8060;50.948;3.146;2024-01-10T05:58:05;15.50;;;7.47;;
15921;SDS011;8060;50.948;3.146;2024-01-10T06:00:34;18.63;;;8.10;;
15921;SDS011;8060;50.948;3.146;2024-01-10T06:03:02;17.10;;;7.70;;
15921;SDS011;8060;50.948;3.146;2024-01-10T06:05:31;17.00;;;7.70;;
15921;SDS011;8060;50.948;3.146;2024-01-10T06:07:59;16.83;;;8.10;;
15921;SDS011;8060;50.948;3.146;2024-01-10T06:10:32;18.00;;;7.90;;
15921;SDS011;8060;50.948;3.146;2024-01-10T06:13:03;18.40;;;7.70;;
15921;SDS011;8060;50.948;3.146;2024-01-10T06:15:31;18.37;;;7.60;;
15921;SDS011;8060;50.948;3.146;2024-01-10T06:18:00;15.83;;;7.73;;
15921;SDS011;8060;50.948;3.146;2024-01-10T06:20:28;17.97;;;7.80;;
15921;SDS011;8060;50.948;3.146;2024-01-10T06:22:58;16.13;;;8.57;;
15921;SDS011;8060;50.948;3.146;2024-01-10T06:25:26;13.57;;;7.37;;
15921;SDS011;8060;50.948;3.146;2024-01-10T06:27:56;15.23;;;7.43;;
15921;SDS011;8060;50.948;3.146;2024-01-10T06:30:25;14.07;;;7.23;;
15921;SDS011;8060;50.948;3.146;2024-01-10T06:32:53;14.53;;;7.53;;
15921;SDS011;8060;50.948;3.146;2024-01-10T06:35:22;16.00;;;7.43;;
15921;SDS011;8060;50.948;3.146;2024-01-10T06:37:50;14.63;;;7.53;;
15921;SDS011;8060;50.948;3.146;2024-01-10T06:40:19;14.13;;;7.47;;
15921;SDS011;8060;50.948;3.146;2024-01-10T06:42:48;17.50;;;7.23;;
15921;SDS011;8060;50.948;3.146;2024-01-10T06:45:17;15.93;;;7.53;;
15921;SDS011;8060;50.948;3.146;2024-01-10T06:47:46;15.27;;;7.20;;
15921;SDS011;8060;50.948;3.146;2024-01-10T06:50:14;16.70;;;7.77;;
15921;SDS011;8060;50.948;3.146;2024-01-10T06:52:45;19.53;;;7.10;;
15921;SDS011;8060;50.948;3.146;2024-01-10T06:55:14;24.20;;;8.03;;
15921;SDS011;8060;50.948;3.146;2024-01-10T06:57:42;19.13;;;8.53;;
15921;SDS011;8060;50.948;3.146;2024-01-10T07:00:11;19.43;;;8.10;;
15921;SDS011;8060;50.948;3.146;2024-01-10T07:02:42;17.53;;;8.00;;
15921;SDS011;8060;50.948;3.146;2024-01-10T07:05:10;19.00;;;7.83;;
15921;SDS011;8060;50.948;3.146;2024-01-10T07:07:38;19.40;;;8.70;;
15921;SDS011;8060;50.948;3.146;2024-01-10T07:10:07;18.73;;;8.67;;
15921;SDS011;8060;50.948;3.146;2024-01-10T07:12:36;21.10;;;9.27;;
15921;SDS011;8060;50.948;3.146;2024-01-10T07:15:04;17.87;;;8.30;;
15921;SDS011;8060;50.948;3.146;2024-01-10T07:17:33;18.77;;;8.27;;
15921;SDS011;8060;50.948;3.146;2024-01-10T07:20:03;18.80;;;8.27;;
15921;SDS011;8060;50.948;3.146;2024-01-10T07:22:34;17.90;;;8.33;;
15921;SDS011;8060;50.948;3.146;2024-01-10T07:25:02;20.77;;;8.13;;
15921;SDS011;8060;50.948;3.146;2024-01-10T07:27:34;18.40;;;8.03;;
15921;SDS011;8060;50.948;3.146;2024-01-10T07:30:04;18.67;;;8.33;;
15921;SDS011;8060;50.948;3.146;2024-01-10T07:32:38;21.20;;;8.13;;
15921;SDS011;8060;50.948;3.146;2024-01-10T07:35:08;18.37;;;8.13;;
15921;SDS011;8060;50.948;3.146;2024-01-10T07:37:37;22.27;;;8.00;;
15921;SDS011;8060;50.948;3.146;2024-01-10T07:40:06;16.90;;;7.63;;
15921;SDS011;8060;50.948;3.146;2024-01-10T07:42:35;22.37;;;8.57;;
15921;SDS011;8060;50.948;3.146;2024-01-10T07:45:04;22.23;;;8.93;;
15921;SDS011;8060;50.948;3.146;2024-01-10T07:47:34;18.20;;;8.63;;
15921;SDS011;8060;50.948;3.146;2024-01-10T07:50:04;16.83;;;8.27;;
15921;SDS011;8060;50.948;3.146;2024-01-10T07:52:34;16.60;;;8.23;;
15921;SDS011;8060;50.948;3.146;2024-01-10T07:55:03;17.43;;;8.03;;
15921;SDS011;8060;50.948;3.146;2024-01-10T07:57:32;18.77;;;8.47;;
15921;SDS011;8060;50.948;3.146;2024-01-10T08:00:01;18.33;;;8.73;;
15921;SDS011;8060;50.948;3.146;2024-01-10T08:02:30;19.90;;;8.70;;
15921;SDS011;8060;50.948;3.146;2024-01-10T08:05:00;22.07;;;9.07;;
15921;SDS011;8060;50.948;3.146;2024-01-10T08:07:31;23.73;;;10.03;;
15921;SDS011;8060;50.948;3.146;2024-01-10T08:10:01;23.00;;;10.97;;
15921;SDS011;8060;50.948;3.146;2024-01-10T08:12:30;26.90;;;12.07;;
15921;SDS011;8060;50.948;3.146;2024-01-10T08:14:58;23.07;;;10.03;;
15921;SDS011;8060;50.948;3.146;2024-01-10T08:17:27;20.53;;;9.13;;
15921;SDS011;8060;50.948;3.146;2024-01-10T08:19:55;24.67;;;10.70;;
15921;SDS011;8060;50.948;3.146;2024-01-10T08:22:23;29.03;;;10.67;;
15921;SDS011;8060;50.948;3.146;2024-01-10T08:24:53;29.37;;;11.67;;
15921;SDS011;8060;50.948;3.146;2024-01-10T08:27:24;26.63;;;10.67;;
15921;SDS011;8060;50.948;3.146;2024-01-10T08:29:52;23.23;;;10.97;;
15921;SDS011;8060;50.948;3.146;2024-01-10T08:32:20;22.93;;;9.57;;
15921;SDS011;8060;50.948;3.146;2024-01-10T08:34:49;20.90;;;10.30;;
15921;SDS011;8060;50.948;3.146;2024-01-10T08:37:17;23.80;;;9.97;;
15921;SDS011;8060;50.948;3.146;2024-01-10T08:39:45;19.23;;;8.90;;
15921;SDS011;8060;50.948;3.146;2024-01-10T08:42:13;15.93;;;8.53;;
15921;SDS011;8060;50.948;3.146;2024-01-10T08:44:43;19.57;;;9.23;;
15921;SDS011;8060;50.948;3.146;2024-01-10T08:47:11;18.50;;;8.43;;
15921;SDS011;8060;50.948;3.146;2024-01-10T08:49:40;18.30;;;8.73;;
15921;SDS011;8060;50.948;3.146;2024-01-10T08:52:08;20.87;;;9.43;;
15921;SDS011;8060;50.948;3.146;2024-01-10T08:54:36;16.83;;;8.07;;
15921;SDS011;8060;50.948;3.146;2024-01-10T08:57:04;20.37;;;8.30;;
15921;SDS011;8060;50.948;3.146;2024-01-10T08:59:33;19.93;;;9.10;;
15921;SDS011;8060;50.948;3.146;2024-01-10T09:02:02;23.93;;;8.90;;
15921;SDS011;8060;50.948;3.146;2024-01-10T09:04:31;17.93;;;8.90;;
15921;SDS011;8060;50.948;3.146;2024-01-10T09:07:03;19.30;;;8.77;;
15921;SDS011;8060;50.948;3.146;2024-01-10T09:09:31;18.53;;;8.53;;
15921;SDS011;8060;50.948;3.146;2024-01-10T09:11:59;17.73;;;8.80;;
15921;SDS011;8060;50.948;3.146;2024-01-10T09:14:28;19.40;;;8.47;;
15921;SDS011;8060;50.948;3.146;2024-01-10T09:16:56;18.10;;;8.77;;
15921;SDS011;8060;50.948;3.146;2024-01-10T09:19:30;16.40;;;8.43;;
15921;SDS011;8060;50.948;3.146;2024-01-10T09:21:58;15.77;;;8.63;;
15921;SDS011;8060;50.948;3.146;2024-01-10T09:24:26;17.57;;;8.70;;
15921;SDS011;8060;50.948;3.146;2024-01-10T09:26:55;17.33;;;8.40;;
15921;SDS011;8060;50.948;3.146;2024-01-10T09:29:24;18.80;;;9.37;;
15921;SDS011;8060;50.948;3.146;2024-01-10T09:31:53;18.50;;;8.90;;
15921;SDS011;8060;50.948;3.146;2024-01-10T09:34:21;21.10;;;10.13;;
15921;SDS011;8060;50.948;3.146;2024-01-10T09:36:51;15.27;;;8.50;;
15921;SDS011;8060;50.948;3.146;2024-01-10T09:39:19;15.00;;;7.83;;
15921;SDS011;8060;50.948;3.146;2024-01-10T09:41:48;18.53;;;9.13;;
15921;SDS011;8060;50.948;3.146;2024-01-10T09:44:18;17.40;;;8.47;;
15921;SDS011;8060;50.948;3.146;2024-01-10T09:46:49;20.10;;;8.83;;
15921;SDS011;8060;50.948;3.146;2024-01-10T09:49:20;18.10;;;8.83;;
15921;SDS011;8060;50.948;3.146;2024-01-10T09:51:53;16.73;;;8.27;;
15921;SDS011;8060;50.948;3.146;2024-01-10T09:54:25;14.23;;;7.53;;
15921;SDS011;8060;50.948;3.146;2024-01-10T09:56:56;15.17;;;7.63;;
15921;SDS011;8060;50.948;3.146;2024-01-10T09:59:25;15.17;;;8.27;;
15921;SDS011;8060;50.948;3.146;2024-01-10T10:01:53;15.80;;;7.90;;
15921;SDS011;8060;50.948;3.146;2024-01-10T10:04:24;17.13;;;8.63;;
15921;SDS011;8060;50.948;3.146;2024-01-10T10:07:00;14.77;;;7.93;;
15921;SDS011;8060;50.948;3.146;2024-01-10T10:09:29;20.23;;;9.00;;
15921;SDS011;8060;50.948;3.146;2024-01-10T10:11:58;17.50;;;8.20;;
15921;SDS011;8060;50.948;3.146;2024-01-10T10:14:28;18.93;;;9.40;;
15921;SDS011;8060;50.948;3.146;2024-01-10T10:16:56;17.63;;;9.40;;
15921;SDS011;8060;50.948;3.146;2024-01-10T10:19:42;19.73;;;9.47;;
15921;SDS011;8060;50.948;3.146;2024-01-10T10:22:13;18.60;;;9.33;;
15921;SDS011;8060;50.948;3.146;2024-01-10T10:24:42;17.30;;;8.77;;
15921;SDS011;8060;50.948;3.146;2024-01-10T10:27:16;15.23;;;8.60;;
15921;SDS011;8060;50.948;3.146;2024-01-10T10:29:44;16.77;;;8.33;;
15921;SDS011;8060;50.948;3.146;2024-01-10T10:32:14;16.10;;;9.20;;
15921;SDS011;8060;50.948;3.146;2024-01-10T10:34:44;22.80;;;9.57;;
15921;SDS011;8060;50.948;3.146;2024-01-10T10:37:14;15.77;;;8.20;;
15921;SDS011;8060;50.948;3.146;2024-01-10T10:39:42;18.00;;;9.13;;
15921;SDS011;8060;50.948;3.146;2024-01-10T10:42:10;17.23;;;9.53;;
15921;SDS011;8060;50.948;3.146;2024-01-10T10:44:39;16.23;;;9.07;;
15921;SDS011;8060;50.948;3.146;2024-01-10T10:47:10;22.17;;;9.10;;
15921;SDS011;8060;50.948;3.146;2024-01-10T10:49:41;17.50;;;9.17;;
15921;SDS011;8060;50.948;3.146;2024-01-10T10:52:20;17.20;;;8.83;;
15921;SDS011;8060;50.948;3.146;2024-01-10T10:54:50;15.30;;;8.90;;
15921;SDS011;8060;50.948;3.146;2024-01-10T10:57:21;16.30;;;9.03;;
15921;SDS011;8060;50.948;3.146;2024-01-10T10:59:53;18.80;;;9.83;;
15921;SDS011;8060;50.948;3.146;2024-01-10T11:02:22;16.90;;;9.87;;
15921;SDS011;8060;50.948;3.146;2024-01-10T11:04:56;21.70;;;9.27;;
15921;SDS011;8060;50.948;3.146;2024-01-10T11:07:28;19.13;;;9.53;;
15921;SDS011;8060;50.948;3.146;2024-01-10T11:09:56;16.93;;;9.17;;
15921;SDS011;8060;50.948;3.146;2024-01-10T11:12:29;15.27;;;8.83;;
15921;SDS011;8060;50.948;3.146;2024-01-10T11:15:12;19.50;;;9.07;;
15921;SDS011;8060;50.948;3.146;2024-01-10T11:18:07;18.93;;;9.10;;
15921;SDS011;8060;50.948;3.146;2024-01-10T11:20:49;17.70;;;9.00;;
15921;SDS011;8060;50.948;3.146;2024-01-10T11:23:35;16.93;;;8.60;;
15921;SDS011;8060;50.948;3.146;2024-01-10T11:26:10;21.40;;;9.50;;
15921;SDS011;8060;50.948;3.146;2024-01-10T11:28:39;15.37;;;9.77;;
15921;SDS011;8060;50.948;3.146;2024-01-10T11:31:08;17.23;;;9.80;;
15921;SDS011;8060;50.948;3.146;2024-01-10T11:33:38;15.37;;;9.67;;
15921;SDS011;8060;50.948;3.146;2024-01-10T11:36:11;15.07;;;9.63;;
15921;SDS011;8060;50.948;3.146;2024-01-10T11:38:43;18.33;;;9.87;;
15921;SDS011;8060;50.948;3.146;2024-01-10T11:41:19;19.90;;;10.17;;
15921;SDS011;8060;50.948;3.146;2024-01-10T11:46:57;19.50;;;10.57;;
15921;SDS011;8060;50.948;3.146;2024-01-10T11:49:26;14.33;;;9.90;;
15921;SDS011;8060;50.948;3.146;2024-01-10T11:51:55;16.70;;;10.63;;
15921;SDS011;8060;50.948;3.146;2024-01-10T11:54:42;19.93;;;10.77;;
15921;SDS011;8060;50.948;3.146;2024-01-10T11:57:12;13.83;;;9.90;;
15921;SDS011;8060;50.948;3.146;2024-01-10T11:59:42;17.33;;;10.17;;
15921;SDS011;8060;50.948;3.146;2024-01-10T12:02:11;14.60;;;9.80;;
15921;SDS011;8060;50.948;3.146;2024-01-10T12:04:41;18.83;;;10.43;;
15921;SDS011;8060;50.948;3.146;2024-01-10T12:07:14;16.63;;;10.50;;
15921;SDS011;8060;50.948;3.146;2024-01-10T12:09:46;18.60;;;11.60;;
15921;SDS011;8060;50.948;3.146;2024-01-10T12:12:15;19.67;;;10.97;;
15921;SDS011;8060;50.948;3.146;2024-01-10T12:14:43;23.17;;;10.43;;
15921;SDS011;8060;50.948;3.146;2024-01-10T12:17:12;17.13;;;11.20;;
15921;SDS011;8060;50.948;3.146;2024-01-10T12:19:40;19.63;;;10.23;;
15921;SDS011;8060;50.948;3.146;2024-01-10T12:22:12;17.37;;;10.67;;
15921;SDS011;8060;50.948;3.146;2024-01-10T12:24:44;17.80;;;10.37;;
15921;SDS011;8060;50.948;3.146;2024-01-10T12:27:17;16.97;;;10.73;;
15921;SDS011;8060;50.948;3.146;2024-01-10T12:29:48;21.60;;;9.90;;
15921;SDS011;8060;50.948;3.146;2024-01-10T12:32:18;18.23;;;10.23;;
15921;SDS011;8060;50.948;3.146;2024-01-10T12:34:53;19.57;;;10.63;;
15921;SDS011;8060;50.948;3.146;2024-01-10T12:37:25;17.47;;;10.43;;
15921;SDS011;8060;50.948;3.146;2024-01-10T12:39:54;20.93;;;10.83;;
15921;SDS011;8060;50.948;3.146;2024-01-10T12:42:23;19.50;;;10.80;;
15921;SDS011;8060;50.948;3.146;2024-01-10T12:44:52;19.00;;;10.63;;
15921;SDS011;8060;50.948;3.146;2024-01-10T12:47:21;20.93;;;10.50;;
15921;SDS011;8060;50.948;3.146;2024-01-10T12:49:50;19.83;;;10.60;;
15921;SDS011;8060;50.948;3.146;2024-01-10T12:52:20;19.40;;;10.97;;
15921;SDS011;8060;50.948;3.146;2024-01-10T12:54:51;20.27;;;10.57;;
15921;SDS011;8060;50.948;3.146;2024-01-10T12:57:21;24.03;;;11.83;;
15921;SDS011;8060;50.948;3.146;2024-01-10T12:59:50;19.23;;;10.73;;
15921;SDS011;8060;50.948;3.146;2024-01-10T13:02:18;18.23;;;10.90;;
15921;SDS011;8060;50.948;3.146;2024-01-10T13:04:46;27.27;;;11.67;;
15921;SDS011;8060;50.948;3.146;2024-01-10T13:07:14;21.63;;;11.07;;
15921;SDS011;8060;50.948;3.146;2024-01-10T13:09:43;21.23;;;10.83;;
15921;SDS011;8060;50.948;3.146;2024-01-10T13:12:11;17.30;;;10.27;;
15921;SDS011;8060;50.948;3.146;2024-01-10T13:14:41;23.57;;;11.47;;
15921;SDS011;8060;50.948;3.146;2024-01-10T13:17:09;19.23;;;10.73;;
15921;SDS011;8060;50.948;3.146;2024-01-10T13:19:37;18.70;;;10.47;;
15921;SDS011;8060;50.948;3.146;2024-01-10T13:22:05;20.07;;;10.90;;
15921;SDS011;8060;50.948;3.146;2024-01-10T13:24:34;19.83;;;11.33;;
15921;SDS011;8060;50.948;3.146;2024-01-10T13:27:03;20.63;;;11.03;;
15921;SDS011;8060;50.948;3.146;2024-01-10T13:29:31;21.83;;;10.80;;
15921;SDS011;8060;50.948;3.146;2024-01-10T13:32:02;17.03;;;10.23;;
15921;SDS011;8060;50.948;3.146;2024-01-10T13:34:31;18.80;;;10.33;;
15921;SDS011;8060;50.948;3.146;2024-01-10T13:36:59;18.57;;;10.10;;
15921;SDS011;8060;50.948;3.146;2024-01-10T13:39:28;19.70;;;10.77;;
15921;SDS011;8060;50.948;3.146;2024-01-10T13:41:59;19.37;;;11.33;;
15921;SDS011;8060;50.948;3.146;2024-01-10T13:44:27;17.50;;;10.53;;
15921;SDS011;8060;50.948;3.146;2024-01-10T13:46:55;19.73;;;10.60;;
15921;SDS011;8060;50.948;3.146;2024-01-10T13:49:24;18.77;;;10.07;;
15921;SDS011;8060;50.948;3.146;2024-01-10T13:51:53;17.03;;;10.33;;
15921;SDS011;8060;50.948;3.146;2024-01-10T13:54:21;17.03;;;9.97;;
15921;SDS011;8060;50.948;3.146;2024-01-10T13:56:49;20.80;;;11.23;;
15921;SDS011;8060;50.948;3.146;2024-01-10T13:59:17;21.57;;;11.60;;
15921;SDS011;8060;50.948;3.146;2024-01-10T14:01:46;20.27;;;11.23;;
15921;SDS011;8060;50.948;3.146;2024-01-10T14:04:14;25.30;;;11.53;;
15921;SDS011;8060;50.948;3.146;2024-01-10T14:06:43;19.83;;;10.67;;
15921;SDS011;8060;50.948;3.146;2024-01-10T14:09:11;20.37;;;11.13;;
15921;SDS011;8060;50.948;3.146;2024-01-10T14:11:40;19.33;;;10.60;;
15921;SDS011;8060;50.948;3.146;2024-01-10T14:14:08;24.83;;;11.17;;
15921;SDS011;8060;50.948;3.146;2024-01-10T14:16:36;20.17;;;10.57;;
15921;SDS011;8060;50.948;3.146;2024-01-10T14:19:04;20.13;;;11.50;;
15921;SDS011;8060;50.948;3.146;2024-01-10T14:21:32;18.73;;;11.60;;
15921;SDS011;8060;50.948;3.146;2024-01-10T14:24:02;19.10;;;11.10;;
15921;SDS011;8060;50.948;3.146;2024-01-10T14:26:30;18.47;;;11.10;;
15921;SDS011;8060;50.948;3.146;2024-01-10T14:28:58;23.87;;;11.90;;
15921;SDS011;8060;50.948;3.146;2024-01-10T14:31:26;22.27;;;13.03;;
15921;SDS011;8060;50.948;3.146;2024-01-10T14:34:15;18.33;;;11.30;;
15921;SDS011;8060;50.948;3.146;2024-01-10T14:36:43;17.50;;;10.63;;
15921;SDS011;8060;50.948;3.146;2024-01-10T14:39:13;21.63;;;11.23;;
15921;SDS011;8060;50.948;3.146;2024-01-10T14:41:41;19.93;;;12.10;;
15921;SDS011;8060;50.948;3.146;2024-01-10T14:44:09;17.13;;;10.30;;
15921;SDS011;8060;50.948;3.146;2024-01-10T14:46:37;18.57;;;11.57;;
15921;SDS011;8060;50.948;3.146;2024-01-10T14:49:09;20.23;;;11.33;;
15921;SDS011;8060;50.948;3.146;2024-01-10T14:51:37;18.20;;;11.60;;
15921;SDS011;8060;50.948;3.146;2024-01-10T14:54:06;21.27;;;11.53;;
15921;SDS011;8060;50.948;3.146;2024-01-10T14:56:36;20.97;;;11.57;;
15921;SDS011;8060;50.948;3.146;2024-01-10T14:59:09;23.07;;;11.53;;
15921;SDS011;8060;50.948;3.146;2024-01-10T15:01:38;25.90;;;11.70;;